createdAt,value
2018-12-27T00:01:51.505Z,7.30
2018-12-27T00:04:25.940Z,7.40
2018-12-27T00:06:59.712Z,7.30
2018-12-27T00:09:33.737Z,7.40
2018-12-27T00:12:08.292Z,7.40
2018-12-27T00:14:42.369Z,7.40
2018-12-27T00:17:16.212Z,7.40
2018-12-27T00:19:50.015Z,7.40
2018-12-27T00:22:24.108Z,7.40
2018-12-27T00:24:58.592Z,7.50
2018-12-27T00:27:32.748Z,7.40
2018-12-27T00:30:07.312Z,7.50
2018-12-27T00:32:41.086Z,7.50
2018-12-27T00:35:15.577Z,7.50
2018-12-27T00:40:29.891Z,7.50
2018-12-27T00:43:03.675Z,7.50
2018-12-27T00:45:38.176Z,7.60
2018-12-27T00:48:11.925Z,7.60
2018-12-27T00:50:45.741Z,7.60
2018-12-27T00:53:19.542Z,7.60
2018-12-27T00:55:53.280Z,7.60
2018-12-27T00:58:26.976Z,7.60
2018-12-27T01:03:42.299Z,7.60
2018-12-27T01:08:57.540Z,7.50
2018-12-27T01:11:31.362Z,7.60
2018-12-27T01:14:05.182Z,7.60
2018-12-27T01:19:20.614Z,7.60
2018-12-27T01:21:55.157Z,7.60
2018-12-27T01:27:10.342Z,7.60
2018-12-27T01:29:44.841Z,7.70
2018-12-27T01:32:18.653Z,7.70
2018-12-27T01:34:52.605Z,7.70
2018-12-27T01:37:26.688Z,7.70
2018-12-27T01:40:00.744Z,7.70
2018-12-27T01:42:34.482Z,7.70
2018-12-27T01:45:08.234Z,7.70
2018-12-27T01:47:42.072Z,7.70
2018-12-27T01:50:15.886Z,7.70
2018-12-27T01:55:36.798Z,7.70
2018-12-27T01:58:10.586Z,7.70
2018-12-27T02:00:44.329Z,7.70
2018-12-27T02:03:18.078Z,7.70
2018-12-27T02:05:51.885Z,7.70
2018-12-27T02:08:25.703Z,7.70
2018-12-27T02:10:59.476Z,7.70
2018-12-27T02:13:33.968Z,7.70
2018-12-27T02:16:07.824Z,7.70
2018-12-27T02:18:41.673Z,7.70
2018-12-27T02:21:15.432Z,7.70
2018-12-27T02:23:49.178Z,7.70
2018-12-27T02:26:22.970Z,7.70
2018-12-27T02:28:56.741Z,7.70
2018-12-27T02:31:31.385Z,7.60
2018-12-27T02:34:05.465Z,7.70
2018-12-27T02:36:39.985Z,7.70
2018-12-27T02:39:14.467Z,7.70
2018-12-27T02:41:48.253Z,7.70
2018-12-27T02:44:21.987Z,7.70
2018-12-27T02:46:56.085Z,7.70
2018-12-27T02:49:29.868Z,7.70
2018-12-27T02:52:03.680Z,7.70
2018-12-27T02:54:37.484Z,7.70
2018-12-27T02:57:11.647Z,7.70
2018-12-27T02:59:45.449Z,7.70
2018-12-27T03:02:19.216Z,7.70
2018-12-27T03:04:53.059Z,7.70
2018-12-27T03:07:26.837Z,7.70
2018-12-27T03:10:00.810Z,7.70
2018-12-27T03:12:35.566Z,7.70
2018-12-27T03:15:09.302Z,7.70
2018-12-27T03:17:43.067Z,7.70
2018-12-27T03:20:17.160Z,7.70
2018-12-27T03:22:50.912Z,7.60
2018-12-27T03:25:24.769Z,7.60
2018-12-27T03:27:58.522Z,7.60
2018-12-27T03:30:32.318Z,7.60
2018-12-27T03:33:06.123Z,7.50
2018-12-27T03:38:26.168Z,7.50
2018-12-27T03:40:59.952Z,7.50
2018-12-27T03:43:33.697Z,7.50
2018-12-27T03:46:07.461Z,7.50
2018-12-27T03:48:41.234Z,7.50
2018-12-27T03:51:15.394Z,7.50
2018-12-27T03:53:49.156Z,7.50
2018-12-27T03:56:22.900Z,7.50
2018-12-27T03:58:56.730Z,7.60
2018-12-27T04:01:30.580Z,7.60
2018-12-27T04:04:04.356Z,7.60
2018-12-27T04:06:38.110Z,7.60
2018-12-27T04:09:11.907Z,7.70
2018-12-27T04:11:45.638Z,7.70
2018-12-27T04:14:19.421Z,7.70
2018-12-27T04:16:53.181Z,7.70
2018-12-27T04:19:27.232Z,7.70
2018-12-27T04:22:00.961Z,7.70
2018-12-27T04:27:14.272Z,7.70
2018-12-27T04:29:48.709Z,7.60
2018-12-27T04:32:22.537Z,7.60
2018-12-27T04:34:56.312Z,7.60
2018-12-27T04:37:30.058Z,7.50
2018-12-27T04:40:03.824Z,7.50
2018-12-27T04:42:37.637Z,7.50
2018-12-27T04:45:11.435Z,7.40
2018-12-27T04:47:45.205Z,7.30
2018-12-27T04:50:18.963Z,7.30
2018-12-27T04:52:52.803Z,7.20
2018-12-27T04:55:26.626Z,7.20
2018-12-27T04:58:00.434Z,7.10
2018-12-27T05:00:34.282Z,7.00
2018-12-27T05:03:08.335Z,7.00
2018-12-27T05:05:42.131Z,6.90
2018-12-27T05:08:16.314Z,6.90
2018-12-27T05:10:50.020Z,6.90
2018-12-27T05:13:23.819Z,6.90
2018-12-27T05:15:57.570Z,6.80
2018-12-27T05:18:31.370Z,6.80
2018-12-27T05:21:05.162Z,6.80
2018-12-27T05:23:39.726Z,6.70
2018-12-27T05:26:13.501Z,6.70
2018-12-27T05:28:47.625Z,6.70
2018-12-27T05:31:21.369Z,6.70
2018-12-27T05:33:55.874Z,6.60
2018-12-27T05:36:29.690Z,6.60
2018-12-27T05:39:04.534Z,6.60
2018-12-27T05:41:38.375Z,6.50
2018-12-27T05:44:12.125Z,6.50
2018-12-27T05:46:45.925Z,6.50
2018-12-27T05:49:19.685Z,6.50
2018-12-27T05:51:53.466Z,6.50
2018-12-27T05:54:27.213Z,6.50
2018-12-27T05:57:01.019Z,6.50
2018-12-27T05:59:34.796Z,6.50
2018-12-27T06:02:08.638Z,6.40
2018-12-27T06:10:04.225Z,6.40
2018-12-27T06:12:38.657Z,6.40
2018-12-27T06:17:58.352Z,6.40
2018-12-27T06:20:32.048Z,6.40
2018-12-27T06:23:06.628Z,6.40
2018-12-27T06:28:22.634Z,6.40
2018-12-27T06:30:56.364Z,6.40
2018-12-27T06:33:30.812Z,6.40
2018-12-27T06:36:05.347Z,6.30
2018-12-27T06:38:39.127Z,6.30
2018-12-27T06:41:13.687Z,6.30
2018-12-27T06:43:47.464Z,6.30
2018-12-27T06:46:22.357Z,6.30
2018-12-27T06:48:56.123Z,6.30
2018-12-27T06:51:29.881Z,6.30
2018-12-27T06:54:03.696Z,6.20
2018-12-27T06:56:37.492Z,6.30
2018-12-27T07:01:52.731Z,6.40
2018-12-27T07:04:26.731Z,6.40
2018-12-27T07:07:01.286Z,6.50
2018-12-27T07:09:35.083Z,6.50
2018-12-27T07:12:08.834Z,6.60
2018-12-27T07:14:42.572Z,6.60
2018-12-27T07:17:16.352Z,6.60
2018-12-27T07:19:50.377Z,6.60
2018-12-27T07:22:24.182Z,6.60
2018-12-27T07:24:57.937Z,6.60
2018-12-27T07:27:31.713Z,6.60
2018-12-27T07:32:46.881Z,6.60
2018-12-27T07:38:02.549Z,6.50
2018-12-27T07:40:36.245Z,6.50
2018-12-27T07:43:10.031Z,6.50
2018-12-27T07:45:43.811Z,6.50
2018-12-27T07:48:18.594Z,6.50
2018-12-27T07:50:52.391Z,6.40
2018-12-27T07:53:26.227Z,6.40
2018-12-27T07:55:59.991Z,6.40
2018-12-27T08:01:14.049Z,6.50
2018-12-27T08:03:47.803Z,6.50
2018-12-27T08:06:21.626Z,6.50
2018-12-27T08:08:56.148Z,6.60
2018-12-27T08:11:31.067Z,6.70
2018-12-27T08:14:04.795Z,6.60
2018-12-27T08:16:39.633Z,6.90
2018-12-27T08:19:13.404Z,6.80
2018-12-27T08:21:47.479Z,7.00
2018-12-27T08:24:21.231Z,7.20
2018-12-27T08:26:55.013Z,7.30
2018-12-27T08:29:28.764Z,7.40
2018-12-27T08:32:03.622Z,7.60
2018-12-27T08:34:37.529Z,7.60
2018-12-27T08:37:11.274Z,7.70
2018-12-27T08:39:45.035Z,7.90
2018-12-27T08:42:18.876Z,8.20
2018-12-27T08:44:52.714Z,8.50
2018-12-27T08:47:26.465Z,8.80
2018-12-27T08:50:00.226Z,9.10
2018-12-27T08:52:35.040Z,9.50
2018-12-27T08:55:09.161Z,9.50
2018-12-27T08:57:42.898Z,9.70
2018-12-27T09:00:17.037Z,9.70
2018-12-27T09:02:50.822Z,9.90
2018-12-27T09:05:24.653Z,9.90
2018-12-27T09:07:58.424Z,10.00
2018-12-27T09:10:32.637Z,10.00
2018-12-27T09:13:06.364Z,10.00
2018-12-27T09:15:40.505Z,10.10
2018-12-27T09:18:14.265Z,10.10
2018-12-27T09:20:48.070Z,10.20
2018-12-27T09:23:21.852Z,10.30
2018-12-27T09:25:55.629Z,10.30
2018-12-27T09:28:29.358Z,10.30
2018-12-27T09:33:43.215Z,10.40
2018-12-27T09:39:00.019Z,10.50
2018-12-27T09:41:34.065Z,10.70
2018-12-27T09:46:49.629Z,11.00
2018-12-27T09:49:23.334Z,11.20
2018-12-27T09:52:02.102Z,11.50
2018-12-27T09:54:30.913Z,11.70
2018-12-27T09:57:04.633Z,12.00
2018-12-27T09:59:38.399Z,12.40
2018-12-27T10:02:13.630Z,13.30
2018-12-27T10:04:48.481Z,13.90
2018-12-27T10:07:22.253Z,13.90
2018-12-27T10:09:56.074Z,14.40
2018-12-27T10:20:33.745Z,15.70
2018-12-27T10:23:08.190Z,15.80
2018-12-27T10:25:42.312Z,15.80
2018-12-27T10:28:16.108Z,15.90
2018-12-27T10:30:50.157Z,15.90
2018-12-27T10:33:23.895Z,16.10
2018-12-27T10:35:58.408Z,16.40
2018-12-27T10:38:32.923Z,16.70
2018-12-27T10:41:06.732Z,16.60
2018-12-27T10:43:41.345Z,17.10
2018-12-27T10:46:15.484Z,17.60
2018-12-27T10:48:50.307Z,18.60
2018-12-27T10:51:24.127Z,18.60
2018-12-27T10:53:58.138Z,18.90
2018-12-27T10:56:31.814Z,19.20
2018-12-27T10:59:05.579Z,19.20
2018-12-27T11:01:39.341Z,19.20
2018-12-27T11:04:13.822Z,19.00
2018-12-27T11:06:47.932Z,18.90
2018-12-27T11:09:21.733Z,18.90
2018-12-27T11:11:55.589Z,18.90
2018-12-27T11:14:30.464Z,19.00
2018-12-27T11:17:04.208Z,19.00
2018-12-27T11:19:37.973Z,19.10
2018-12-27T11:22:11.784Z,19.00
2018-12-27T11:24:45.561Z,18.80
2018-12-27T11:27:20.080Z,18.50
2018-12-27T11:29:54.605Z,18.40
2018-12-27T11:32:28.356Z,18.40
2018-12-27T11:35:02.395Z,18.30
2018-12-27T11:37:36.176Z,18.30
2018-12-27T11:40:10.008Z,18.20
2018-12-27T11:42:43.806Z,18.20
2018-12-27T11:45:17.593Z,18.10
2018-12-27T11:50:31.164Z,17.90
2018-12-27T11:53:05.061Z,17.90
2018-12-27T11:55:38.977Z,17.80
2018-12-27T11:58:12.756Z,17.60
2018-12-27T12:00:46.496Z,17.50
2018-12-27T12:03:20.996Z,17.30
2018-12-27T12:05:54.760Z,17.30
2018-12-27T12:08:28.557Z,17.40
2018-12-27T12:11:03.107Z,17.60
2018-12-27T12:24:20.705Z,17.30
2018-12-27T12:26:54.706Z,17.20
2018-12-27T12:29:28.525Z,17.00
2018-12-27T12:34:42.585Z,16.40
2018-12-27T12:37:16.296Z,16.30
2018-12-27T12:39:50.145Z,16.20
2018-12-27T12:42:32.935Z,15.90
2018-12-27T12:44:58.494Z,15.90
2018-12-27T12:47:32.991Z,15.70
2018-12-27T12:50:08.734Z,15.70
2018-12-27T12:52:42.812Z,15.60
2018-12-27T12:55:16.576Z,15.40
2018-12-27T12:57:51.117Z,15.10
2018-12-27T13:00:25.641Z,15.00
2018-12-27T13:02:59.423Z,15.00
2018-12-27T13:05:33.429Z,14.90
2018-12-27T13:10:46.854Z,14.50
2018-12-27T13:18:47.117Z,14.00
2018-12-27T13:21:14.725Z,13.90
2018-12-27T13:23:49.304Z,13.70
2018-12-27T13:29:02.600Z,13.60
2018-12-27T13:31:37.074Z,13.50
2018-12-27T13:36:51.407Z,13.50
2018-12-27T13:39:25.124Z,13.50
2018-12-27T13:41:59.290Z,13.50
2018-12-27T13:49:58.584Z,13.40
2018-12-27T13:52:32.462Z,13.40
2018-12-27T13:57:48.798Z,13.40
2018-12-27T14:00:22.497Z,13.40
2018-12-27T14:02:56.349Z,13.40
2018-12-27T14:08:09.959Z,13.30
2018-12-27T14:10:43.694Z,13.30
2018-12-27T14:13:17.549Z,13.20
2018-12-27T14:18:36.792Z,13.10
2018-12-27T14:21:10.524Z,13.00
2018-12-27T14:23:44.441Z,12.90
2018-12-27T14:26:18.244Z,12.90
2018-12-27T14:28:52.690Z,12.70
2018-12-27T14:31:26.443Z,12.60
2018-12-27T14:36:41.929Z,12.40
2018-12-27T14:39:15.669Z,12.30
2018-12-27T14:41:49.492Z,12.20
2018-12-27T14:44:24.000Z,12.00
2018-12-27T14:49:42.108Z,12.00
2018-12-27T14:52:15.850Z,12.00
2018-12-27T14:54:50.434Z,11.90
2018-12-27T14:57:24.207Z,11.80
2018-12-27T14:59:58.774Z,11.80
2018-12-27T15:05:12.241Z,11.80
2018-12-27T15:10:31.961Z,11.70
2018-12-27T15:13:05.990Z,11.70
2018-12-27T15:15:39.794Z,11.70
2018-12-27T15:18:14.368Z,11.60
2018-12-27T15:20:48.228Z,11.60
2018-12-27T15:23:21.982Z,11.60
2018-12-27T15:25:56.581Z,11.40
2018-12-27T15:28:30.701Z,11.40
2018-12-27T15:31:04.521Z,11.40
2018-12-27T15:33:38.650Z,11.40
2018-12-27T15:36:12.487Z,11.30
2018-12-27T15:38:46.281Z,11.30
2018-12-27T15:41:20.913Z,11.30
2018-12-27T15:43:54.786Z,11.30
2018-12-27T15:46:28.566Z,11.30
2018-12-27T15:49:02.355Z,11.30
2018-12-27T15:51:36.937Z,11.30
2018-12-27T15:54:10.689Z,11.30
2018-12-27T15:56:44.549Z,11.30
2018-12-27T15:59:18.330Z,11.30
2018-12-27T16:01:52.410Z,11.20
2018-12-27T16:04:26.910Z,11.20
2018-12-27T16:09:42.547Z,11.20
2018-12-27T16:12:17.004Z,11.10
2018-12-27T16:14:51.269Z,11.10
2018-12-27T16:17:26.305Z,11.00
2018-12-27T16:20:01.540Z,11.00
2018-12-27T16:27:58.920Z,10.90
2018-12-27T16:30:32.672Z,10.90
2018-12-27T16:33:06.861Z,10.80
2018-12-27T16:35:40.627Z,10.70
2018-12-27T16:38:14.665Z,10.70
2018-12-27T16:40:49.178Z,10.50
2018-12-27T16:43:22.949Z,10.50
2018-12-27T16:45:56.752Z,10.50
2018-12-27T16:48:30.818Z,10.40
2018-12-27T16:51:05.344Z,10.30
2018-12-27T16:53:40.201Z,10.20
2018-12-27T16:58:56.091Z,10.10
2018-12-27T17:01:29.873Z,10.10
2018-12-27T17:04:03.709Z,10.00
2018-12-27T17:09:20.433Z,9.90
2018-12-27T17:11:55.558Z,9.90
2018-12-27T17:17:20.034Z,9.80
2018-12-27T17:19:53.757Z,9.80
2018-12-27T17:22:27.578Z,9.70
2018-12-27T17:27:42.282Z,9.70
2018-12-27T17:30:16.044Z,9.70
2018-12-27T17:32:49.957Z,9.70
2018-12-27T17:35:23.823Z,9.70
2018-12-27T17:37:57.578Z,9.60
2018-12-27T17:43:17.945Z,9.60
2018-12-27T17:48:33.517Z,9.60
2018-12-27T17:51:07.279Z,9.60
2018-12-27T17:53:41.149Z,9.60
2018-12-27T17:58:56.482Z,9.50
2018-12-27T18:01:30.206Z,9.50
2018-12-27T18:06:45.659Z,9.50
2018-12-27T18:12:03.626Z,9.50
2018-12-27T18:19:58.536Z,9.30
2018-12-27T18:22:32.250Z,9.30
2018-12-27T18:27:45.962Z,9.30
2018-12-27T18:30:19.742Z,9.30
2018-12-27T18:32:53.896Z,9.30
2018-12-27T18:38:09.875Z,9.20
2018-12-27T18:40:44.304Z,9.20
2018-12-27T18:43:18.108Z,9.20
2018-12-27T18:48:34.721Z,9.10
2018-12-27T18:51:08.434Z,9.10
2018-12-27T18:53:42.476Z,9.10
2018-12-27T18:58:59.357Z,9.20
2018-12-27T19:01:33.057Z,9.10
2018-12-27T19:06:48.289Z,9.20
2018-12-27T19:09:22.014Z,9.20
2018-12-27T19:12:51.565Z,9.20
2018-12-27T19:18:26.776Z,9.10
2018-12-27T19:21:21.006Z,9.10
2018-12-27T19:23:55.126Z,9.00
2018-12-27T19:29:12.229Z,8.90
2018-12-27T19:31:46.077Z,8.90
2018-12-27T19:34:19.976Z,8.90
2018-12-27T19:39:33.260Z,8.80
2018-12-27T19:42:07.766Z,8.80
2018-12-27T19:47:23.077Z,8.80
2018-12-27T19:49:57.542Z,8.70
2018-12-27T19:52:31.716Z,8.80
2018-12-27T19:57:52.437Z,8.70
2018-12-27T20:00:26.885Z,8.70
2018-12-27T20:03:00.726Z,8.60
2018-12-27T20:08:14.631Z,8.60
2018-12-27T20:10:48.413Z,8.60
2018-12-27T20:13:23.014Z,8.60
2018-12-27T20:18:42.746Z,8.60
2018-12-27T20:21:20.538Z,8.60
2018-12-27T20:23:54.600Z,8.60
2018-12-27T20:26:28.431Z,8.60
2018-12-27T20:29:02.219Z,8.50
2018-12-27T20:37:02.656Z,8.50
2018-12-27T20:39:36.373Z,8.50
2018-12-27T20:42:10.310Z,8.50
2018-12-27T20:44:44.361Z,8.50
2018-12-27T20:50:00.721Z,8.40
2018-12-27T20:52:34.736Z,8.30
2018-12-27T20:55:08.845Z,8.30
2018-12-27T20:57:42.671Z,8.30
2018-12-27T21:00:16.410Z,8.20
2018-12-27T21:02:50.914Z,8.20
2018-12-27T21:05:24.957Z,8.20
2018-12-27T21:10:40.658Z,8.10
2018-12-27T21:13:14.188Z,8.10
2018-12-27T21:15:48.009Z,8.10
2018-12-27T21:21:01.717Z,8.10
2018-12-27T21:23:36.229Z,8.10
2018-12-27T21:28:51.465Z,8.10
2018-12-27T21:31:25.198Z,8.10
2018-12-27T21:36:38.520Z,8.10
2018-12-27T21:39:12.221Z,8.20
2018-12-27T21:41:46.100Z,8.20
2018-12-27T21:47:06.072Z,8.20
2018-12-27T21:49:40.227Z,8.30
2018-12-27T21:52:14.077Z,8.30
2018-12-27T21:57:33.740Z,8.30
2018-12-27T22:00:08.652Z,8.30
2018-12-27T22:02:43.187Z,8.30
2018-12-27T22:07:58.406Z,8.30
2018-12-27T22:10:32.146Z,8.30
2018-12-27T22:13:06.258Z,8.30
2018-12-27T22:18:20.412Z,8.20
2018-12-27T22:20:54.114Z,8.30
2018-12-27T22:23:27.959Z,8.20
2018-12-27T22:28:50.464Z,8.20
2018-12-27T22:31:24.169Z,8.20
2018-12-27T22:36:39.477Z,8.10
2018-12-27T22:39:13.206Z,8.10
2018-12-27T22:41:47.104Z,8.10
2018-12-27T22:47:02.639Z,8.10
2018-12-27T22:49:36.418Z,8.00
2018-12-27T22:52:10.276Z,8.00
2018-12-27T22:57:23.605Z,8.00
2018-12-27T22:59:59.405Z,8.00
2018-12-27T23:02:33.249Z,7.90
2018-12-27T23:05:07.846Z,7.90
2018-12-27T23:10:23.866Z,7.90
2018-12-27T23:12:57.633Z,7.90
2018-12-27T23:18:11.157Z,7.90
2018-12-27T23:20:44.888Z,7.90
2018-12-27T23:23:18.741Z,7.80
2018-12-27T23:28:32.065Z,7.80
2018-12-27T23:31:05.774Z,7.80
2018-12-27T23:33:39.603Z,7.80
2018-12-27T23:36:14.122Z,7.80
2018-12-27T23:38:50.462Z,7.80
2018-12-27T23:41:22.203Z,7.80
2018-12-27T23:43:56.000Z,7.90
2018-12-27T23:46:29.841Z,7.90
2018-12-27T23:49:03.619Z,7.80
2018-12-27T23:51:37.400Z,7.80
2018-12-27T23:54:11.458Z,7.80
2018-12-27T23:56:45.214Z,7.80
2018-12-27T23:59:19.020Z,7.80
